Skip Navigation

Christman Field Latest Observations

Switch to metric unitsOther observation timesWeekly graphs

Date Time
MST
Temp
°F
RH
%
DewPt
°F
Wind
mph
Dir
°
Gust
mph
Dir
°
Press
in Hg
Solar
W/m^2
Prec
in
2024-03-03 01:45 34.5 53.3 19.2 21.9 311 28.1 322 24.433 0.0 0.00
2024-03-03 01:40 34.8 54.6 20.1 23.6 331 32.0 317 24.421 0.0 0.00
2024-03-03 01:35 35.0 55.3 20.6 21.7 285 31.1 295 24.417 0.0 0.00
2024-03-03 01:30 35.3 55.2 20.9 25.5 303 31.1 296 24.416 0.0 0.00
2024-03-03 01:25 35.4 58.2 22.2 23.8 296 30.1 308 24.409 0.1 0.00
2024-03-03 01:20 35.7 56.0 21.5 29.5 314 39.9 285 24.403 0.1 0.00
2024-03-03 01:15 35.5 56.7 21.7 27.0 310 39.4 278 24.414 0.1 0.00
2024-03-03 01:10 35.1 66.8 25.2 24.4 304 32.3 307 24.418 0.0 0.00
2024-03-03 01:05 34.2 72.0 26.1 22.6 319 33.2 308 24.423 0.0 0.00
2024-03-03 01:00 34.1 84.4 29.9 26.4 311 34.5 314 24.418 0.0 0.00
2024-03-03 00:55 33.8 87.3 30.4 28.9 307 34.4 312 24.408 0.0 0.00
2024-03-03 00:50 33.9 90.9 31.5 30.1 312 37.0 314 24.398 0.0 0.00
2024-03-03 00:45 34.3 90.5 31.8 25.2 304 35.2 313 24.382 0.0 0.01
2024-03-03 00:40 35.3 87.6 31.9 20.8 325 25.7 304 24.381 0.0 0.00
2024-03-03 00:35 37.0 82.0 32.0 24.0 306 34.2 308 24.384 0.0 0.00
2024-03-03 00:30 39.0 72.7 31.0 28.5 311 35.6 293 24.388 0.0 0.00
2024-03-03 00:25 40.6 62.0 28.6 27.0 297 36.9 295 24.381 0.0 0.00
2024-03-03 00:20 40.7 61.8 28.6 16.2 298 27.9 310 24.369 0.0 0.00
2024-03-03 00:15 40.9 65.5 30.2 13.9 321 17.7 358 24.359 0.0 0.00
2024-03-03 00:10 42.1 64.6 31.0 11.5 5 16.4 358 24.356 0.0 0.00
2024-03-03 00:05 42.7 63.6 31.2 8.5 340 10.1 342 24.363 0.0 0.00
2024-03-03 00:00 43.5 62.1 31.4 4.1 319 5.7 319 24.370 0.0 0.00
2024-03-02 23:55 43.4 60.3 30.6 7.5 267 16.2 267 24.369 0.0 0.00
2024-03-02 23:50 43.3 60.6 30.6 9.6 319 14.1 310 24.375 0.0 0.00
2024-03-02 23:45 42.6 61.1 30.2 7.7 299 14.6 250 24.381 0.0 0.00
2024-03-02 23:40 42.4 65.0 31.5 2.7 213 5.3 222 24.369 0.0 0.00
2024-03-02 23:35 42.8 64.0 31.4 2.1 63 5.7 33 24.358 0.0 0.00
2024-03-02 23:30 43.7 63.1 32.0 7.1 37 11.3 345 24.349 0.0 0.00
2024-03-02 23:25 44.8 59.6 31.6 9.4 343 14.0 251 24.343 0.0 0.00
2024-03-02 23:20 45.3 58.1 31.4 10.8 244 16.1 226 24.335 0.0 0.00